Orleans, Minnesota
Current Conditions -  °F | °C
As of 7:33 AM on Wednesday 22 Oct 2014 (Local Time) from KHCO Reporting Station
Clear Clear  
Wind Chill: 55°   Ceiling: Unl
Heat Index: 55°   Visibility: 10mi
Dew Point: 41°   Wind: 22mph
Humidity: 58%   Direction: 160°SSE
Pressure: 29.79"   Gusts: 30mph
Location:  48.9114°N, 96.8428°W
Report Text: KHCO 221233Z AUTO 16019G26KT 10SM CLR 13/05 A2979 RMK AO2
Loading
Personal Weather Stations






























Interactive Weather Map
Tropical Storm Tracking
New forecast layout! Learn more

10-Day Weather Forecast

Advertisements
Track Severe Weather on mobile